Time;durP1;ratioP1;P1;durP2;ratioP2;P2;SDS_P1;SDS_P2;PMS_P1;PMS_P2;Temp;Humidity;BMP_temperature;BMP_pressure;BME280_temperature;BME280_humidity;BME280_pressure;Samples;Min_cycle;Max_cycle;Signal;HPM_P1;HPM_P2
2023/07/17 00:02:24;;;;;;;;;10.00;9.50;;;;;;;;5098881;27;45460;-77
2023/07/17 00:04:50;;;;;;;;;10.33;9.33;;;;;;;;5100267;27;45298;-77
2023/07/17 00:07:15;;;;;;;;;13.33;13.33;;;;;;;;5100517;27;45482;-79
2023/07/17 00:09:43;;;;;;;;;15.33;13.00;;;;;;;;5100616;27;45550;-81
2023/07/17 00:12:09;;;;;;;;;12.33;11.33;;;;;;;;5098856;27;46634;-74
2023/07/17 00:14:34;;;;;;;;;18.00;14.00;;;;;;;;5099079;27;45237;-83
2023/07/17 00:17:00;;;;;;;;;13.00;11.67;;;;;;;;5099837;27;45198;-74
2023/07/17 00:19:25;;;;;;;;;13.67;12.00;;;;;;;;5100264;27;45356;-86
2023/07/17 00:21:51;;;;;;;;;15.67;14.33;;;;;;;;5100139;27;45907;-84
2023/07/17 00:24:16;;;;;;;;;13.33;12.00;;;;;;;;5100301;27;45454;-86
2023/07/17 00:26:41;;;;;;;;;14.00;12.67;;;;;;;;5099768;27;45438;-86
2023/07/17 00:29:28;;;;;;;;;13.00;11.67;;;;;;;;5100013;27;45329;-84
2023/07/17 00:31:54;;;;;;;;;18.00;15.33;;;;;;;;5099920;27;46131;-84
2023/07/17 00:34:19;;;;;;;;;12.67;12.00;;;;;;;;5099743;27;45587;-87
2023/07/17 00:36:45;;;;;;;;;15.00;11.67;;;;;;;;5098561;27;45358;-86
2023/07/17 00:39:11;;;;;;;;;14.00;14.00;;;;;;;;5100091;27;45605;-86
2023/07/17 00:41:36;;;;;;;;;14.00;12.67;;;;;;;;5098599;27;45439;-86
2023/07/17 00:44:03;;;;;;;;;14.33;13.33;;;;;;;;5099313;27;45471;-86
2023/07/17 00:46:29;;;;;;;;;13.67;12.67;;;;;;;;5098477;27;45380;-87
2023/07/17 00:48:54;;;;;;;;;14.33;13.33;;;;;;;;5098472;27;45495;-85
2023/07/17 00:51:20;;;;;;;;;13.33;13.00;;;;;;;;5098193;27;46720;-84
2023/07/17 00:53:49;;;;;;;;;17.00;14.67;;;;;;;;5099562;27;45512;-81
2023/07/17 00:56:14;;;;;;;;;15.00;13.67;;;;;;;;5099594;27;45468;-87
2023/07/17 00:58:40;;;;;;;;;14.00;12.33;;;;;;;;5099929;27;45324;-87
2023/07/17 01:01:06;;;;;;;;;13.00;12.00;;;;;;;;5099696;27;45483;-87
2023/07/17 01:03:31;;;;;;;;;15.00;14.00;;;;;;;;5099361;27;45286;-86
2023/07/17 01:05:57;;;;;;;;;12.67;12.67;;;;;;;;5099550;27;45487;-86
2023/07/17 01:08:22;;;;;;;;;15.67;13.33;;;;;;;;5098262;27;45595;-85
2023/07/17 01:10:48;;;;;;;;;15.00;14.00;;;;;;;;5097926;27;45997;-82
2023/07/17 01:13:14;;;;;;;;;15.33;13.33;;;;;;;;5099357;27;45399;-84
2023/07/17 01:15:39;;;;;;;;;14.00;13.67;;;;;;;;5099559;27;45617;-87
2023/07/17 01:18:04;;;;;;;;;18.67;13.33;;;;;;;;5098103;27;45630;-87
2023/07/17 01:20:30;;;;;;;;;13.67;13.67;;;;;;;;5097919;27;45413;-83
2023/07/17 01:22:55;;;;;;;;;14.67;12.33;;;;;;;;5099183;27;45498;-78
2023/07/17 01:25:20;;;;;;;;;16.67;14.00;;;;;;;;5097908;27;45349;-85
2023/07/17 01:27:49;;;;;;;;;14.33;13.33;;;;;;;;5099336;27;45554;-84
2023/07/17 01:30:15;;;;;;;;;13.67;11.33;;;;;;;;5099093;27;45491;-85
2023/07/17 01:32:40;;;;;;;;;22.00;14.33;;;;;;;;5099162;27;45534;-75
2023/07/17 01:35:06;;;;;;;;;13.67;12.33;;;;;;;;5099143;27;45517;-77
2023/07/17 01:37:31;;;;;;;;;13.67;13.00;;;;;;;;5099181;27;45467;-73
2023/07/17 01:39:56;;;;;;;;;13.00;10.00;;;;;;;;5097446;27;45483;-76
2023/07/17 01:42:22;;;;;;;;;13.67;13.00;;;;;;;;5098538;27;45520;-79
2023/07/17 01:44:50;;;;;;;;;13.67;12.33;;;;;;;;5097553;27;45569;-84
2023/07/17 01:47:15;;;;;;;;;15.33;13.33;;;;;;;;5099110;27;45474;-86
2023/07/17 01:49:41;;;;;;;;;13.33;11.67;;;;;;;;5098731;27;46059;-86
2023/07/17 01:52:08;;;;;;;;;15.00;14.00;;;;;;;;5098758;27;45169;-86
2023/07/17 01:54:34;;;;;;;;;13.00;12.33;;;;;;;;5098613;27;45392;-86
2023/07/17 01:56:59;;;;;;;;;14.67;13.33;;;;;;;;5098509;27;45281;-85
2023/07/17 01:59:25;;;;;;;;;15.00;13.67;;;;;;;;5098419;27;45285;-84
2023/07/17 02:01:50;;;;;;;;;12.67;11.33;;;;;;;;5097199;27;45400;-86
2023/07/17 02:04:15;;;;;;;;;16.67;13.67;;;;;;;;5098755;27;45399;-85
2023/07/17 02:06:41;;;;;;;;;14.67;14.00;;;;;;;;5099137;27;45446;-85
2023/07/17 02:09:06;;;;;;;;;15.67;14.00;;;;;;;;5098069;27;45273;-85
2023/07/17 02:11:32;;;;;;;;;14.67;14.00;;;;;;;;5098483;27;45585;-83
2023/07/17 02:13:57;;;;;;;;;16.00;14.33;;;;;;;;5098289;27;45496;-85
2023/07/17 02:16:23;;;;;;;;;16.00;14.67;;;;;;;;5098668;27;45288;-84
2023/07/17 02:18:48;;;;;;;;;16.67;13.67;;;;;;;;5096354;27;46863;-83
2023/07/17 02:21:13;;;;;;;;;15.67;13.00;;;;;;;;5096954;27;45452;-86
2023/07/17 02:23:39;;;;;;;;;16.33;14.33;;;;;;;;5098259;27;45222;-79
2023/07/17 02:26:04;;;;;;;;;13.33;12.67;;;;;;;;5098597;27;45498;-86
2023/07/17 02:28:29;;;;;;;;;12.33;12.33;;;;;;;;5096751;27;46729;-84
2023/07/17 02:30:55;;;;;;;;;17.33;13.33;;;;;;;;5098077;27;45232;-86
2023/07/17 02:33:23;;;;;;;;;14.33;12.67;;;;;;;;5098399;27;45178;-87
2023/07/17 02:35:49;;;;;;;;;14.00;14.00;;;;;;;;5098453;27;45546;-85
2023/07/17 02:38:14;;;;;;;;;17.00;15.00;;;;;;;;5096845;27;45729;-84
2023/07/17 02:40:39;;;;;;;;;15.33;12.67;;;;;;;;5097802;27;45243;-85
2023/07/17 02:43:06;;;;;;;;;15.33;15.33;;;;;;;;5096395;27;45461;-87
2023/07/17 02:45:31;;;;;;;;;16.00;14.00;;;;;;;;5098354;27;45494;-86
2023/07/17 02:47:56;;;;;;;;;16.67;15.67;;;;;;;;5096434;27;46276;-84
2023/07/17 02:50:22;;;;;;;;;12.67;12.00;;;;;;;;5097687;27;45283;-83
2023/07/17 02:52:47;;;;;;;;;13.33;12.67;;;;;;;;5096436;27;45501;-77
2023/07/17 02:55:13;;;;;;;;;16.00;13.67;;;;;;;;5098397;27;45230;-83
2023/07/17 02:57:38;;;;;;;;;12.67;11.67;;;;;;;;5097439;27;45541;-86
2023/07/17 03:00:08;;;;;;;;;17.00;13.00;;;;;;;;5096238;27;45489;-85
2023/07/17 03:02:34;;;;;;;;;15.67;14.00;;;;;;;;5096390;27;45417;-86
2023/07/17 03:04:59;;;;;;;;;14.00;12.33;;;;;;;;5097858;27;45506;-81
2023/07/17 03:07:24;;;;;;;;;15.33;14.33;;;;;;;;5097607;27;46002;-86
2023/07/17 03:09:50;;;;;;;;;12.33;12.00;;;;;;;;5097552;27;45240;-81
2023/07/17 03:12:15;;;;;;;;;12.33;10.67;;;;;;;;5097994;27;45470;-83
2023/07/17 03:14:40;;;;;;;;;16.00;14.33;;;;;;;;5097809;27;45430;-84
2023/07/17 03:17:06;;;;;;;;;11.67;10.67;;;;;;;;5097414;27;45886;-85
2023/07/17 03:19:32;;;;;;;;;13.67;10.33;;;;;;;;5097498;27;45533;-86
2023/07/17 03:21:57;;;;;;;;;15.67;14.00;;;;;;;;5097666;27;45510;-83
2023/07/17 03:24:26;;;;;;;;;16.67;12.67;;;;;;;;5096141;27;45492;-87
2023/07/17 03:26:51;;;;;;;;;14.00;13.00;;;;;;;;5096049;27;45619;-85
2023/07/17 03:29:17;;;;;;;;;16.33;14.67;;;;;;;;5097680;27;45205;-84
2023/07/17 03:31:42;;;;;;;;;13.33;11.67;;;;;;;;5097577;27;45465;-85
2023/07/17 03:34:07;;;;;;;;;16.00;12.00;;;;;;;;5097606;27;45540;-86
2023/07/17 03:36:33;;;;;;;;;10.00;8.00;;;;;;;;5095816;27;46762;-77
2023/07/17 03:38:58;;;;;;;;;14.33;13.33;;;;;;;;5097050;27;45453;-86
2023/07/17 03:41:23;;;;;;;;;16.33;13.67;;;;;;;;5097152;27;45508;-86
2023/07/17 03:43:49;;;;;;;;;15.67;12.33;;;;;;;;5096307;27;45488;-87
2023/07/17 03:46:14;;;;;;;;;13.67;13.67;;;;;;;;5095756;27;46182;-86
2023/07/17 03:48:39;;;;;;;;;14.67;13.67;;;;;;;;5095801;27;45490;-85
2023/07/17 03:51:05;;;;;;;;;17.00;14.00;;;;;;;;5097312;27;45288;-77
2023/07/17 03:53:30;;;;;;;;;15.67;14.00;;;;;;;;5097119;27;45533;-77
2023/07/17 03:55:55;;;;;;;;;12.00;10.67;;;;;;;;5096639;27;45695;-74
2023/07/17 03:58:21;;;;;;;;;14.00;13.00;;;;;;;;5097321;27;45830;-78
2023/07/17 04:00:47;;;;;;;;;13.00;13.00;;;;;;;;5097386;27;46006;-75
2023/07/17 04:03:12;;;;;;;;;13.67;12.67;;;;;;;;5098163;27;45327;-74
2023/07/17 04:05:37;;;;;;;;;17.67;15.67;;;;;;;;5100359;27;45911;-83
2023/07/17 04:08:03;;;;;;;;;15.67;13.67;;;;;;;;5100494;27;45186;-79
2023/07/17 04:10:28;;;;;;;;;15.67;14.33;;;;;;;;5100456;27;45463;-77
2023/07/17 04:12:54;;;;;;;;;13.67;13.33;;;;;;;;5100241;27;45257;-79
2023/07/17 04:15:19;;;;;;;;;14.33;13.33;;;;;;;;5100593;27;45351;-80
2023/07/17 04:17:45;;;;;;;;;15.00;14.33;;;;;;;;5098877;27;45495;-86
2023/07/17 04:20:10;;;;;;;;;17.33;15.00;;;;;;;;5098939;27;45394;-85
2023/07/17 04:22:36;;;;;;;;;12.00;12.00;;;;;;;;5100403;27;45427;-78
2023/07/17 04:25:03;;;;;;;;;14.67;12.33;;;;;;;;5100341;27;45978;-86
2023/07/17 04:27:29;;;;;;;;;13.00;12.00;;;;;;;;5100439;27;45476;-86
2023/07/17 04:29:55;;;;;;;;;17.67;14.00;;;;;;;;5099260;27;45348;-87
2023/07/17 04:32:20;;;;;;;;;14.33;13.67;;;;;;;;5100785;27;45296;-87
2023/07/17 04:34:46;;;;;;;;;11.67;11.33;;;;;;;;5100224;27;45395;-86
2023/07/17 04:37:11;;;;;;;;;13.00;12.67;;;;;;;;5100293;27;45467;-86
2023/07/17 04:39:36;;;;;;;;;16.00;15.00;;;;;;;;5098792;27;45294;-87
2023/07/17 04:42:02;;;;;;;;;14.00;11.33;;;;;;;;5098732;27;45693;-86
2023/07/17 04:44:30;;;;;;;;;15.33;13.33;;;;;;;;5100173;27;45527;-77
2023/07/17 04:46:55;;;;;;;;;12.33;12.33;;;;;;;;5098642;27;45261;-74
2023/07/17 04:49:21;;;;;;;;;14.00;12.67;;;;;;;;5099803;27;45287;-76
2023/07/17 04:51:46;;;;;;;;;15.67;15.00;;;;;;;;5098519;27;45377;-81
2023/07/17 04:54:11;;;;;;;;;16.33;15.33;;;;;;;;5100184;27;46002;-77
2023/07/17 04:56:37;;;;;;;;;13.00;12.67;;;;;;;;5099452;27;45868;-77
2023/07/17 04:59:02;;;;;;;;;14.00;12.67;;;;;;;;5099727;27;45281;-77
2023/07/17 05:01:27;;;;;;;;;19.67;14.67;;;;;;;;5099706;27;45232;-76
2023/07/17 05:03:53;;;;;;;;;13.33;13.00;;;;;;;;5099844;27;45326;-78
2023/07/17 05:06:18;;;;;;;;;17.33;15.00;;;;;;;;5098063;27;45397;-77
2023/07/17 05:08:43;;;;;;;;;15.33;13.67;;;;;;;;5098316;27;45452;-77
2023/07/17 05:11:09;;;;;;;;;14.00;12.00;;;;;;;;5099847;27;45362;-77
2023/07/17 05:13:34;;;;;;;;;14.33;13.00;;;;;;;;5099399;27;45358;-79
2023/07/17 05:16:00;;;;;;;;;15.67;14.00;;;;;;;;5099485;27;45343;-76
2023/07/17 05:18:25;;;;;;;;;15.67;14.33;;;;;;;;5099863;27;45570;-79
2023/07/17 05:20:51;;;;;;;;;15.67;13.33;;;;;;;;5099578;27;45573;-79
2023/07/17 05:23:16;;;;;;;;;16.33;14.33;;;;;;;;5099245;27;45957;-75
2023/07/17 05:25:50;;;;;;;;;17.67;13.67;;;;;;;;5099102;27;45306;-79
2023/07/17 05:28:15;;;;;;;;;17.00;15.00;;;;;;;;5099225;27;45403;-77
2023/07/17 05:30:41;;;;;;;;;16.67;16.00;;;;;;;;5099352;27;45331;-77
2023/07/17 05:33:06;;;;;;;;;14.33;13.67;;;;;;;;5099456;27;46087;-76
2023/07/17 05:35:31;;;;;;;;;14.67;14.00;;;;;;;;5097672;27;45471;-75
2023/07/17 05:37:56;;;;;;;;;14.00;13.33;;;;;;;;5097916;27;45516;-75
2023/07/17 05:40:22;;;;;;;;;16.00;14.33;;;;;;;;5097645;27;45496;-74
2023/07/17 05:42:47;;;;;;;;;12.00;8.00;;;;;;;;5098930;27;45272;-75
2023/07/17 05:45:13;;;;;;;;;12.67;10.67;;;;;;;;5099017;27;45357;-76
2023/07/17 05:47:38;;;;;;;;;16.33;13.67;;;;;;;;5097500;27;45453;-79
2023/07/17 05:50:04;;;;;;;;;18.00;15.00;;;;;;;;5097846;27;45662;-81
2023/07/17 05:52:29;;;;;;;;;17.00;14.33;;;;;;;;5098552;27;46040;-79
2023/07/17 05:54:54;;;;;;;;;16.33;13.33;;;;;;;;5099007;27;45275;-79
2023/07/17 05:57:20;;;;;;;;;15.33;13.00;;;;;;;;5098847;27;45286;-74
2023/07/17 05:59:45;;;;;;;;;15.33;14.00;;;;;;;;5097563;27;45337;-75
2023/07/17 06:02:10;;;;;;;;;13.33;12.00;;;;;;;;5098727;27;45325;-75
2023/07/17 06:04:36;;;;;;;;;12.33;12.00;;;;;;;;5097337;27;45381;-74
2023/07/17 06:07:04;;;;;;;;;13.00;11.00;;;;;;;;5098457;27;45578;-76
2023/07/17 06:09:30;;;;;;;;;14.00;13.00;;;;;;;;5099233;27;45446;-75
2023/07/17 06:11:55;;;;;;;;;18.33;14.67;;;;;;;;5098527;27;46052;-75
2023/07/17 06:14:21;;;;;;;;;15.50;14.00;;;;;;;;5097459;27;45342;-73
2023/07/17 06:16:46;;;;;;;;;15.00;13.33;;;;;;;;5099398;27;45601;-74
2023/07/17 06:19:11;;;;;;;;;14.33;13.33;;;;;;;;5097566;27;45508;-75
2023/07/17 06:21:37;;;;;;;;;13.33;13.33;;;;;;;;5097193;27;46872;-75
2023/07/17 06:24:07;;;;;;;;;14.33;13.33;;;;;;;;5101636;27;45519;-74
2023/07/17 06:26:36;;;;;;;;;15.33;13.67;;;;;;;;5114861;27;45322;-73
2023/07/17 06:29:05;;;;;;;;;14.67;11.33;;;;;;;;5120176;27;44722;-74
2023/07/17 06:31:31;;;;;;;;;14.67;13.67;;;;;;;;5111695;27;45450;-73
2023/07/17 06:33:56;;;;;;;;;13.67;12.00;;;;;;;;5108390;27;45190;-81
2023/07/17 06:36:21;;;;;;;;;12.67;12.00;;;;;;;;5098153;27;45503;-80
2023/07/17 06:38:47;;;;;;;;;12.33;12.33;;;;;;;;5098681;27;45471;-80
2023/07/17 06:41:12;;;;;;;;;14.33;12.67;;;;;;;;5098431;27;45345;-81
2023/07/17 06:43:38;;;;;;;;;13.33;12.00;;;;;;;;5097907;27;45407;-78
2023/07/17 06:46:04;;;;;;;;;14.00;13.33;;;;;;;;5097040;27;45317;-80
2023/07/17 06:48:30;;;;;;;;;19.33;14.00;;;;;;;;5097125;27;45525;-76
2023/07/17 06:50:55;;;;;;;;;15.33;15.33;;;;;;;;5096762;27;46187;-80
2023/07/17 06:53:20;;;;;;;;;15.00;13.00;;;;;;;;5096881;27;45457;-84
2023/07/17 06:55:46;;;;;;;;;13.33;13.00;;;;;;;;5098480;27;46291;-84
2023/07/17 06:58:14;;;;;;;;;16.67;15.33;;;;;;;;5098519;27;45389;-79
2023/07/17 07:00:39;;;;;;;;;13.00;12.00;;;;;;;;5097871;27;45529;-84
2023/07/17 07:03:08;;;;;;;;;13.33;13.00;;;;;;;;5097748;27;45341;-80
2023/07/17 07:05:33;;;;;;;;;16.33;14.67;;;;;;;;5097701;27;45396;-86
2023/07/17 07:07:58;;;;;;;;;14.67;14.00;;;;;;;;5098317;27;45429;-81
2023/07/17 07:10:24;;;;;;;;;15.33;14.00;;;;;;;;5097682;27;45974;-75
2023/07/17 07:12:49;;;;;;;;;13.33;12.67;;;;;;;;5096415;27;45417;-81
2023/07/17 07:15:14;;;;;;;;;15.67;13.33;;;;;;;;5098113;27;45432;-86
2023/07/17 07:17:40;;;;;;;;;16.67;14.00;;;;;;;;5098164;27;45246;-85
2023/07/17 07:20:08;;;;;;;;;16.33;14.33;;;;;;;;5097615;27;46083;-85
2023/07/17 07:22:34;;;;;;;;;20.00;17.00;;;;;;;;5098379;27;45385;-77
2023/07/17 07:24:59;;;;;;;;;22.33;18.67;;;;;;;;5096535;27;45352;-83
2023/07/17 07:27:26;;;;;;;;;20.00;17.33;;;;;;;;5097144;27;45554;-82
2023/07/17 07:29:52;;;;;;;;;22.00;18.33;;;;;;;;5097520;27;45333;-85
2023/07/17 07:32:17;;;;;;;;;22.00;17.67;;;;;;;;5097085;27;45475;-84
2023/07/17 07:34:43;;;;;;;;;25.00;22.00;;;;;;;;5096239;27;45504;-85
2023/07/17 07:37:08;;;;;;;;;17.33;15.33;;;;;;;;5096295;27;45416;-85
2023/07/17 07:39:33;;;;;;;;;31.25;27.25;;;;;;;;5100436;27;45543;-85
2023/07/17 07:41:59;;;;;;;;;27.33;23.67;;;;;;;;5101265;27;45330;-77
2023/07/17 07:44:24;;;;;;;;;20.50;19.00;;;;;;;;5100823;27;45443;-85
2023/07/17 07:46:49;;;;;;;;;16.00;15.67;;;;;;;;5101063;27;45325;-85
2023/07/17 07:49:15;;;;;;;;;15.67;14.00;;;;;;;;5100847;27;45292;-85
2023/07/17 07:51:40;;;;;;;;;12.67;12.00;;;;;;;;5099719;27;45483;-83
2023/07/17 07:54:06;;;;;;;;;14.33;10.33;;;;;;;;5100586;27;45425;-83
2023/07/17 07:56:31;;;;;;;;;16.33;15.00;;;;;;;;5101590;27;45404;-85
2023/07/17 07:58:56;;;;;;;;;21.00;18.67;;;;;;;;5101940;27;45234;-84
2023/07/17 08:01:22;;;;;;;;;18.67;16.33;;;;;;;;5100630;27;45345;-86
2023/07/17 08:03:47;;;;;;;;;16.67;14.67;;;;;;;;5100810;27;45363;-87
2023/07/17 08:06:13;;;;;;;;;12.00;11.00;;;;;;;;5100872;27;45558;-75
2023/07/17 08:08:38;;;;;;;;;16.33;14.67;;;;;;;;5100332;27;46170;-74
2023/07/17 08:11:03;;;;;;;;;15.33;14.67;;;;;;;;5100678;27;45481;-75
2023/07/17 08:13:29;;;;;;;;;15.00;14.00;;;;;;;;5100367;27;45357;-74
2023/07/17 08:15:54;;;;;;;;;17.67;16.67;;;;;;;;5100519;27;45225;-75
2023/07/17 08:18:19;;;;;;;;;18.67;15.67;;;;;;;;5098563;27;45423;-86
2023/07/17 08:20:45;;;;;;;;;18.00;17.67;;;;;;;;5100387;27;45188;-74
2023/07/17 08:23:10;;;;;;;;;16.33;13.33;;;;;;;;5098439;27;45555;-74
2023/07/17 08:25:35;;;;;;;;;17.67;16.67;;;;;;;;5100629;27;45407;-86
2023/07/17 08:28:01;;;;;;;;;16.00;14.67;;;;;;;;5100073;27;46151;-79
2023/07/17 08:30:26;;;;;;;;;11.33;11.33;;;;;;;;5098836;27;45829;-86
2023/07/17 08:32:51;;;;;;;;;13.00;13.00;;;;;;;;5101492;27;45534;-86
2023/07/17 08:35:17;;;;;;;;;16.67;15.33;;;;;;;;5103189;27;45826;-82
2023/07/17 08:37:42;;;;;;;;;14.00;13.33;;;;;;;;5101113;27;46265;-85
2023/07/17 08:40:10;;;;;;;;;16.33;14.67;;;;;;;;5099957;27;45546;-78
2023/07/17 08:42:36;;;;;;;;;16.00;14.00;;;;;;;;5098896;27;45363;-73
2023/07/17 08:45:02;;;;;;;;;17.67;15.67;;;;;;;;5098358;27;45597;-75
2023/07/17 08:47:28;;;;;;;;;18.67;17.00;;;;;;;;5097729;27;45374;-74
2023/07/17 08:49:54;;;;;;;;;14.00;13.33;;;;;;;;5097351;27;45490;-75
2023/07/17 08:52:19;;;;;;;;;16.33;13.67;;;;;;;;5098095;27;45350;-74
2023/07/17 08:54:44;;;;;;;;;13.00;11.00;;;;;;;;5099035;27;45634;-75
2023/07/17 08:57:10;;;;;;;;;18.67;17.00;;;;;;;;5097174;27;46480;-74
2023/07/17 08:59:36;;;;;;;;;13.00;12.00;;;;;;;;5099549;27;45466;-73
2023/07/17 09:02:03;;;;;;;;;16.67;15.00;;;;;;;;5099377;27;45282;-74
2023/07/17 09:04:30;;;;;;;;;13.33;13.33;;;;;;;;5099165;27;45376;-73
2023/07/17 09:06:55;;;;;;;;;18.33;16.67;;;;;;;;5097402;27;45578;-74
2023/07/17 09:09:21;;;;;;;;;19.67;17.33;;;;;;;;5098945;27;45618;-73
2023/07/17 09:11:46;;;;;;;;;15.00;12.67;;;;;;;;5097668;27;45444;-74
2023/07/17 09:14:12;;;;;;;;;18.67;15.00;;;;;;;;5099269;27;45277;-74
2023/07/17 09:16:38;;;;;;;;;20.00;18.33;;;;;;;;5099315;27;45573;-74
2023/07/17 09:19:04;;;;;;;;;20.33;17.67;;;;;;;;5097381;27;45496;-73
2023/07/17 09:21:29;;;;;;;;;16.00;15.00;;;;;;;;5098750;27;45507;-75
2023/07/17 09:23:56;;;;;;;;;14.33;14.00;;;;;;;;5097779;27;45566;-73
2023/07/17 09:26:22;;;;;;;;;18.33;15.67;;;;;;;;5098638;27;46151;-74
2023/07/17 09:28:57;;;;;;;;;16.00;14.00;;;;;;;;5098266;27;45489;-76
2023/07/17 09:31:29;;;;;;;;;17.33;15.00;;;;;;;;5097178;27;45490;-74
2023/07/17 09:33:56;;;;;;;;;25.33;24.33;;;;;;;;5099129;27;45455;-74
2023/07/17 09:36:22;;;;;;;;;18.67;17.33;;;;;;;;5098586;27;45222;-73
2023/07/17 09:38:54;;;;;;;;;17.00;14.67;;;;;;;;5096889;27;45539;-74
2023/07/17 09:41:23;;;;;;;;;19.67;16.00;;;;;;;;5098107;27;45346;-75
2023/07/17 09:43:57;;;;;;;;;16.33;16.00;;;;;;;;5096968;27;45496;-86
2023/07/17 09:46:24;;;;;;;;;15.67;14.00;;;;;;;;5098796;27;45409;-83
2023/07/17 09:48:49;;;;;;;;;12.33;12.33;;;;;;;;5098377;27;45329;-82
2023/07/17 09:51:16;;;;;;;;;19.33;18.33;;;;;;;;5098054;27;45448;-83
2023/07/17 09:53:45;;;;;;;;;21.67;20.00;;;;;;;;5097234;27;45441;-79
2023/07/17 09:56:13;;;;;;;;;19.00;16.00;;;;;;;;5098554;27;46379;-78
2023/07/17 09:58:43;;;;;;;;;17.33;16.67;;;;;;;;5098296;27;45581;-78
2023/07/17 10:01:09;;;;;;;;;18.33;18.33;;;;;;;;5096206;27;45503;-78
2023/07/17 10:03:34;;;;;;;;;20.67;20.00;;;;;;;;5096575;27;45537;-78
2023/07/17 10:06:00;;;;;;;;;20.33;19.00;;;;;;;;5097738;27;45532;-78
2023/07/17 10:08:28;;;;;;;;;19.67;17.67;;;;;;;;5097069;27;45333;-78
2023/07/17 10:10:54;;;;;;;;;24.33;21.00;;;;;;;;5097429;27;45390;-78
2023/07/17 10:13:20;;;;;;;;;18.00;17.00;;;;;;;;5096561;27;45463;-78
2023/07/17 10:15:45;;;;;;;;;19.33;18.00;;;;;;;;5098001;27;45365;-78
2023/07/17 10:18:11;;;;;;;;;24.00;18.67;;;;;;;;5096688;27;45551;-78
2023/07/17 10:20:38;;;;;;;;;17.00;16.00;;;;;;;;5097501;27;45243;-78
2023/07/17 10:23:05;;;;;;;;;15.67;14.67;;;;;;;;5096408;27;45518;-78
2023/07/17 10:25:30;;;;;;;;;16.00;15.00;;;;;;;;5096351;27;45539;-78
2023/07/17 10:28:00;;;;;;;;;17.67;15.67;;;;;;;;5095844;27;45569;-78
2023/07/17 10:30:36;;;;;;;;;19.67;14.67;;;;;;;;5097664;27;45456;-77
2023/07/17 10:33:07;;;;;;;;;17.33;15.33;;;;;;;;5097666;27;45239;-78
2023/07/17 10:35:48;;;;;;;;;15.33;15.00;;;;;;;;5096034;27;45354;-78
2023/07/17 10:38:18;;;;;;;;;18.33;16.00;;;;;;;;5096180;27;45452;-78
2023/07/17 10:40:43;;;;;;;;;20.00;17.33;;;;;;;;5097746;27;45355;-78
2023/07/17 10:43:12;;;;;;;;;18.67;15.00;;;;;;;;5097596;27;45609;-78
2023/07/17 10:45:38;;;;;;;;;17.00;15.67;;;;;;;;5096259;27;47720;-79
2023/07/17 10:48:05;;;;;;;;;31.33;28.00;;;;;;;;5097648;27;45425;-78
2023/07/17 10:50:30;;;;;;;;;20.67;19.00;;;;;;;;5097661;27;45237;-78
2023/07/17 10:53:00;;;;;;;;;18.33;16.00;;;;;;;;5097803;27;45205;-78
2023/07/17 10:55:27;;;;;;;;;27.33;26.33;;;;;;;;5095688;27;46275;-78
2023/07/17 10:57:53;;;;;;;;;29.00;26.00;;;;;;;;5097236;27;45401;-78
2023/07/17 11:00:19;;;;;;;;;34.75;30.25;;;;;;;;5097377;27;45473;-78
2023/07/17 11:02:44;;;;;;;;;25.00;23.67;;;;;;;;5097512;27;45469;-78
2023/07/17 11:05:10;;;;;;;;;25.33;23.00;;;;;;;;5097295;27;45470;-78
2023/07/17 11:07:35;;;;;;;;;25.67;20.67;;;;;;;;5095644;27;45416;-77
2023/07/17 11:10:00;;;;;;;;;18.00;17.33;;;;;;;;5096120;27;46014;-78
2023/07/17 11:12:26;;;;;;;;;19.00;16.00;;;;;;;;5097855;27;45584;-78
2023/07/17 11:14:52;;;;;;;;;17.33;14.67;;;;;;;;5100842;27;45869;-78
2023/07/17 11:17:17;;;;;;;;;16.00;15.33;;;;;;;;5100597;27;45289;-78
2023/07/17 11:19:42;;;;;;;;;16.67;15.67;;;;;;;;5099604;27;45408;-79
2023/07/17 11:22:08;;;;;;;;;25.67;22.33;;;;;;;;5100900;27;45479;-79
2023/07/17 11:24:33;;;;;;;;;23.33;22.33;;;;;;;;5100693;27;46462;-79
2023/07/17 11:26:59;;;;;;;;;21.67;21.67;;;;;;;;5101016;27;45419;-78
2023/07/17 11:29:24;;;;;;;;;31.67;26.67;;;;;;;;5100274;27;45288;-77
2023/07/17 11:31:56;;;;;;;;;23.00;22.33;;;;;;;;5100431;27;45502;-77
2023/07/17 11:34:22;;;;;;;;;24.33;23.00;;;;;;;;5099109;27;47298;-78
2023/07/17 11:36:47;;;;;;;;;26.00;24.67;;;;;;;;5100449;27;45457;-76
2023/07/17 11:39:14;;;;;;;;;26.33;21.33;;;;;;;;5099342;27;45433;-78
2023/07/17 11:41:53;;;;;;;;;20.00;17.67;;;;;;;;5099013;27;45514;-77
2023/07/17 11:44:23;;;;;;;;;18.33;18.33;;;;;;;;5098717;27;46423;-75
2023/07/17 11:46:50;;;;;;;;;20.67;17.33;;;;;;;;5098738;27;45341;-77
2023/07/17 11:49:16;;;;;;;;;17.67;16.00;;;;;;;;5100688;27;45326;-77
2023/07/17 11:51:44;;;;;;;;;17.00;16.00;;;;;;;;5098975;27;45352;-78
2023/07/17 11:54:09;;;;;;;;;18.00;17.00;;;;;;;;5100373;27;45232;-78
2023/07/17 11:56:35;;;;;;;;;17.67;17.00;;;;;;;;5098662;27;45523;-78
2023/07/17 11:59:00;;;;;;;;;19.00;18.00;;;;;;;;5100009;27;45503;-78
2023/07/17 12:01:26;;;;;;;;;17.00;15.33;;;;;;;;5099671;27;45331;-78
2023/07/17 12:03:51;;;;;;;;;16.00;16.00;;;;;;;;5098378;27;48290;-78
2023/07/17 12:06:16;;;;;;;;;16.00;15.33;;;;;;;;5100067;27;45465;-78
2023/07/17 12:08:43;;;;;;;;;18.33;17.00;;;;;;;;5099000;27;45444;-77
2023/07/17 12:11:08;;;;;;;;;14.67;14.00;;;;;;;;5099616;27;45356;-77
2023/07/17 12:13:34;;;;;;;;;17.67;15.67;;;;;;;;5098875;27;45970;-77
2023/07/17 12:15:59;;;;;;;;;19.33;16.67;;;;;;;;5099510;27;45269;-77
2023/07/17 12:18:24;;;;;;;;;21.67;18.33;;;;;;;;5100067;27;45514;-78
2023/07/17 12:20:50;;;;;;;;;17.67;15.33;;;;;;;;5100077;27;45388;-75
2023/07/17 12:23:15;;;;;;;;;19.67;16.33;;;;;;;;5098812;27;45577;-76
2023/07/17 12:25:42;;;;;;;;;19.33;19.33;;;;;;;;5097456;27;45612;-77
2023/07/17 12:28:08;;;;;;;;;23.00;20.67;;;;;;;;5096806;27;45560;-77
2023/07/17 12:30:33;;;;;;;;;16.00;15.33;;;;;;;;5098401;27;45706;-77
2023/07/17 12:32:59;;;;;;;;;19.67;18.67;;;;;;;;5099067;27;46288;-77
2023/07/17 12:35:24;;;;;;;;;17.67;16.33;;;;;;;;5098807;27;45413;-77
2023/07/17 12:37:52;;;;;;;;;15.00;13.67;;;;;;;;5099308;27;45530;-78
2023/07/17 12:40:18;;;;;;;;;12.33;12.00;;;;;;;;5097798;27;45511;-77
2023/07/17 12:42:43;;;;;;;;;13.33;12.33;;;;;;;;5098156;27;45457;-78
2023/07/17 12:45:08;;;;;;;;;17.67;15.00;;;;;;;;5096440;27;45472;-76
2023/07/17 12:47:34;;;;;;;;;16.33;15.00;;;;;;;;5098938;27;45180;-78
2023/07/17 12:49:59;;;;;;;;;17.33;15.00;;;;;;;;5099390;27;45644;-78
2023/07/17 12:52:25;;;;;;;;;14.33;13.00;;;;;;;;5098891;27;45601;-77
2023/07/17 12:54:50;;;;;;;;;15.00;14.00;;;;;;;;5099112;27;45336;-77
2023/07/17 12:57:16;;;;;;;;;14.00;13.33;;;;;;;;5098886;27;45491;-77
2023/07/17 12:59:41;;;;;;;;;15.00;13.67;;;;;;;;5097713;27;45309;-77
2023/07/17 13:02:07;;;;;;;;;15.67;15.00;;;;;;;;5098862;27;45348;-77
2023/07/17 13:04:32;;;;;;;;;13.67;12.33;;;;;;;;5098863;27;45421;-77
2023/07/17 13:06:58;;;;;;;;;14.67;13.67;;;;;;;;5098964;27;45349;-77
2023/07/17 13:09:24;;;;;;;;;18.00;16.67;;;;;;;;5099171;27;45334;-77
2023/07/17 13:11:49;;;;;;;;;15.33;13.00;;;;;;;;5098970;27;45551;-77
2023/07/17 13:14:15;;;;;;;;;15.33;13.67;;;;;;;;5098575;27;45466;-77
2023/07/17 13:16:40;;;;;;;;;18.00;15.00;;;;;;;;5098648;27;45199;-77
2023/07/17 13:19:06;;;;;;;;;14.33;14.33;;;;;;;;5098798;27;45176;-77
2023/07/17 13:21:31;;;;;;;;;13.00;12.33;;;;;;;;5098573;27;45394;-78
2023/07/17 13:23:58;;;;;;;;;10.67;10.67;;;;;;;;5098716;27;45473;-77
2023/07/17 13:26:28;;;;;;;;;16.00;14.33;;;;;;;;5098750;27;45463;-76
2023/07/17 13:28:53;;;;;;;;;14.67;14.33;;;;;;;;5099037;27;45354;-76
2023/07/17 13:31:18;;;;;;;;;15.33;14.00;;;;;;;;5097228;27;46375;-77
2023/07/17 13:33:44;;;;;;;;;14.67;14.00;;;;;;;;5098147;27;45419;-77
2023/07/17 13:36:09;;;;;;;;;16.67;14.00;;;;;;;;5097863;27;45492;-78
2023/07/17 13:38:34;;;;;;;;;14.67;13.67;;;;;;;;5097523;27;45284;-77
2023/07/17 13:41:00;;;;;;;;;15.33;14.00;;;;;;;;5098343;27;45847;-77
2023/07/17 13:43:25;;;;;;;;;17.00;15.00;;;;;;;;5098986;27;45437;-77
2023/07/17 13:45:51;;;;;;;;;14.00;12.00;;;;;;;;5099173;27;45444;-77
2023/07/17 13:48:18;;;;;;;;;15.33;14.67;;;;;;;;5097375;27;45188;-78
2023/07/17 13:50:44;;;;;;;;;17.00;15.67;;;;;;;;5098354;27;46241;-76
2023/07/17 13:53:09;;;;;;;;;18.00;16.00;;;;;;;;5098567;27;45533;-77
2023/07/17 13:55:35;;;;;;;;;15.00;14.67;;;;;;;;5098100;27;45522;-78
2023/07/17 13:58:00;;;;;;;;;15.00;14.33;;;;;;;;5098646;27;45292;-77
2023/07/17 14:00:27;;;;;;;;;14.00;12.67;;;;;;;;5098161;27;45573;-75
2023/07/17 14:02:53;;;;;;;;;16.00;14.67;;;;;;;;5098458;27;45320;-78
2023/07/17 14:05:18;;;;;;;;;16.33;14.33;;;;;;;;5098659;27;45832;-78
2023/07/17 14:07:43;;;;;;;;;16.67;14.00;;;;;;;;5098770;27;45566;-78
2023/07/17 14:10:09;;;;;;;;;17.33;16.00;;;;;;;;5096305;27;46164;-78